Shirland, Illinois
Current Conditions -  °F | °C
As of 1:45 PM on Friday 24 Oct 2014 (Local Time) from KJVL Reporting Station
Haze Haze  
Wind Chill: 55°   Ceiling: 300
Heat Index: 55°   Visibility: 5mi
Dew Point: 52°   Wind: 7mph
Humidity: 88%   Direction: 200°SSW
Pressure: 30"   Gusts: NA
Location:  42.44°N, 89.2°W
Report Text: KJVL 241845Z 20006KT 5SM BR OVC003 13/11 A3000
Loading
Personal Weather Stations






























Interactive Weather Map
Tropical Storm Tracking
New forecast layout! Learn more

10-Day Weather Forecast

Advertisements
Track Severe Weather on mobile